Austin, Pennsylvania
Current Conditions -  °F | °C
As of 8:55 AM on Thursday 30 Oct 2014 (Local Time) from KBFD Reporting Station
Overcast Overcast  
Wind Chill: 35°   Ceiling: 3000
Heat Index: 39°   Visibility: 10mi
Dew Point: 36°   Wind: 6mph
Humidity: 89%   Direction: 310°NW
Pressure: 30.04"   Gusts: NA
Location:  41.63°N, 78.09°W
Report Text: KBFD 301255Z AUTO 31005KT 10SM SCT015 OVC030 04/02 A3004 RMK AO2 T00390022
Loading
Personal Weather Stations






























Interactive Weather Map New forecast layout! Learn more

10-Day Weather Forecast

Advertisements
Track Severe Weather on mobile